createdAt,value
2018-05-26T00:00:56.642Z,5.83
2018-05-26T00:03:23.827Z,4.47
2018-05-26T00:05:51.037Z,5.83
2018-05-26T00:08:18.263Z,10.30
2018-05-26T00:10:45.463Z,4.67
2018-05-26T00:13:12.670Z,5.30
2018-05-26T00:15:39.863Z,5.20
2018-05-26T00:18:07.054Z,4.80
2018-05-26T00:20:34.236Z,4.53
2018-05-26T00:23:03.161Z,6.20
2018-05-26T00:25:30.385Z,4.60
2018-05-26T00:27:57.745Z,5.03
2018-05-26T00:30:24.937Z,4.23
2018-05-26T00:32:52.134Z,6.40
2018-05-26T00:35:19.342Z,12.80
2018-05-26T00:37:46.520Z,6.10
2018-05-26T00:40:13.717Z,5.40
2018-05-26T00:42:40.909Z,8.97
2018-05-26T00:45:08.108Z,5.87
2018-05-26T00:47:35.319Z,4.60
2018-05-26T00:50:02.507Z,6.60
2018-05-26T00:52:29.728Z,6.10
2018-05-26T00:54:56.914Z,5.40
2018-05-26T00:57:24.113Z,4.90
2018-05-26T00:59:51.314Z,5.90
2018-05-26T01:02:18.496Z,4.47
2018-05-26T01:04:45.693Z,4.47
2018-05-26T01:07:12.870Z,5.10
2018-05-26T01:09:40.050Z,4.93
2018-05-26T01:12:07.276Z,4.50
2018-05-26T01:14:34.465Z,4.77
2018-05-26T01:17:01.665Z,4.93
2018-05-26T01:19:28.871Z,4.67
2018-05-26T01:21:56.057Z,4.90
2018-05-26T01:24:23.241Z,5.20
2018-05-26T01:26:50.451Z,5.10
2018-05-26T01:29:17.734Z,6.23
2018-05-26T01:31:44.913Z,4.90
2018-05-26T01:34:12.110Z,5.33
2018-05-26T01:36:39.293Z,4.43
2018-05-26T01:39:06.489Z,4.73
2018-05-26T01:41:33.680Z,4.47
2018-05-26T01:44:00.895Z,4.67
2018-05-26T01:46:28.080Z,4.20
2018-05-26T01:48:55.258Z,4.00
2018-05-26T01:51:22.465Z,4.10
2018-05-26T01:53:49.650Z,4.10
2018-05-26T01:56:16.866Z,5.40
2018-05-26T01:58:44.057Z,6.77
2018-05-26T02:01:11.261Z,7.57
2018-05-26T02:03:38.449Z,4.70
2018-05-26T02:06:05.655Z,5.13
2018-05-26T02:08:32.853Z,4.23
2018-05-26T02:11:00.053Z,5.33
2018-05-26T02:13:27.248Z,4.87
2018-05-26T02:15:54.436Z,5.47
2018-05-26T02:18:21.631Z,6.07
2018-05-26T02:20:48.826Z,6.33
2018-05-26T02:23:16.029Z,5.10
2018-05-26T02:25:43.224Z,5.60
2018-05-26T02:28:10.451Z,5.40
2018-05-26T02:30:37.627Z,5.70
2018-05-26T02:33:04.614Z,6.23
2018-05-26T02:35:31.797Z,5.40
2018-05-26T02:37:58.994Z,4.10
2018-05-26T02:40:26.189Z,4.17
2018-05-26T02:42:53.369Z,4.73
2018-05-26T02:45:20.582Z,4.80
2018-05-26T02:47:47.782Z,4.10
2018-05-26T02:50:14.990Z,5.20
2018-05-26T02:52:42.183Z,5.43
2018-05-26T02:55:09.376Z,4.90
2018-05-26T02:57:36.563Z,5.40
2018-05-26T03:00:03.758Z,5.10
2018-05-26T03:02:30.950Z,5.73
2018-05-26T03:05:03.653Z,5.80
2018-05-26T03:07:36.354Z,6.23
2018-05-26T03:10:08.946Z,7.23
2018-05-26T03:12:41.554Z,8.97
2018-05-26T03:15:08.122Z,8.90
2018-05-26T03:17:54.929Z,5.40
2018-05-26T03:20:22.121Z,5.57
2018-05-26T03:22:49.331Z,6.90
2018-05-26T03:25:16.534Z,5.80
2018-05-26T03:27:43.734Z,4.57
2018-05-26T03:30:10.932Z,4.40
2018-05-26T03:32:38.124Z,4.87
2018-05-26T03:35:05.333Z,5.07
2018-05-26T03:37:32.538Z,4.60
2018-05-26T03:39:59.722Z,4.43
2018-05-26T03:42:26.908Z,4.60
2018-05-26T03:44:54.117Z,3.63
2018-05-26T03:47:21.075Z,3.63
2018-05-26T03:49:48.287Z,3.97
2018-05-26T03:52:15.467Z,3.93
2018-05-26T03:54:48.329Z,4.30
2018-05-26T03:57:21.246Z,4.90
2018-05-26T04:00:09.117Z,5.80
2018-05-26T04:02:36.312Z,7.43
2018-05-26T04:05:03.496Z,7.20
2018-05-26T04:07:30.690Z,7.10
2018-05-26T04:09:57.905Z,7.40
2018-05-26T04:12:25.097Z,7.23
2018-05-26T04:14:52.290Z,7.93
2018-05-26T04:17:19.483Z,6.90
2018-05-26T04:19:46.671Z,6.80
2018-05-26T04:22:13.870Z,6.10
2018-05-26T04:24:41.062Z,6.57
2018-05-26T04:27:08.256Z,7.80
2018-05-26T04:29:35.474Z,7.63
2018-05-26T04:32:02.681Z,8.00
2018-05-26T04:34:29.888Z,8.10
2018-05-26T04:36:57.079Z,8.13
2018-05-26T04:39:24.293Z,8.23
2018-05-26T04:41:51.506Z,7.83
2018-05-26T04:44:18.685Z,8.57
2018-05-26T04:46:45.891Z,7.20
2018-05-26T04:49:13.077Z,6.97
2018-05-26T04:51:40.273Z,7.50
2018-05-26T04:54:07.478Z,8.30
2018-05-26T04:56:34.728Z,7.63
2018-05-26T04:59:01.938Z,7.00
2018-05-26T05:01:29.137Z,6.93
2018-05-26T05:03:56.518Z,7.17
2018-05-26T05:06:23.727Z,7.83
2018-05-26T05:08:50.936Z,7.93
2018-05-26T05:11:18.123Z,8.13
2018-05-26T05:13:45.310Z,7.80
2018-05-26T05:16:12.494Z,8.37
2018-05-26T05:18:39.711Z,8.50
2018-05-26T05:21:06.939Z,6.80
2018-05-26T05:23:34.141Z,7.37
2018-05-26T05:26:01.479Z,8.20
2018-05-26T05:28:28.666Z,7.30
2018-05-26T05:30:55.858Z,7.70
2018-05-26T05:33:23.045Z,7.27
2018-05-26T05:35:50.237Z,7.13
2018-05-26T05:38:17.441Z,7.07
2018-05-26T05:40:44.645Z,6.83
2018-05-26T05:43:11.826Z,6.90
2018-05-26T05:45:39.218Z,7.53
2018-05-26T05:48:06.410Z,7.80
2018-05-26T05:50:33.622Z,6.20
2018-05-26T05:53:00.797Z,7.33
2018-05-26T05:55:28.020Z,5.97
2018-05-26T05:57:55.204Z,6.90
2018-05-26T06:00:22.414Z,7.00
2018-05-26T06:02:49.612Z,6.43
2018-05-26T06:05:16.798Z,6.50
2018-05-26T06:07:43.994Z,6.23
2018-05-26T06:10:11.194Z,5.67
2018-05-26T06:12:38.386Z,6.40
2018-05-26T06:15:05.592Z,6.13
2018-05-26T06:17:32.999Z,5.80
2018-05-26T06:20:00.205Z,5.27
2018-05-26T06:22:27.394Z,5.80
2018-05-26T06:24:54.591Z,6.00
2018-05-26T06:27:21.770Z,5.70
2018-05-26T06:29:48.998Z,5.33
2018-05-26T06:32:16.178Z,5.67
2018-05-26T06:34:43.403Z,5.23
2018-05-26T06:37:10.598Z,4.67
2018-05-26T06:39:37.791Z,4.77
2018-05-26T06:42:04.997Z,5.47
2018-05-26T06:44:32.828Z,5.20
2018-05-26T06:47:00.022Z,4.53
2018-05-26T06:49:27.222Z,4.80
2018-05-26T06:51:54.428Z,3.97
2018-05-26T06:54:21.609Z,4.17
2018-05-26T06:56:48.813Z,4.27
2018-05-26T06:59:16.209Z,4.03
2018-05-26T07:01:43.406Z,4.40
2018-05-26T07:04:10.601Z,4.33
2018-05-26T07:06:37.806Z,3.67
2018-05-26T07:09:05.946Z,3.57
2018-05-26T07:11:33.144Z,4.10
2018-05-26T07:14:00.375Z,3.07
2018-05-26T07:16:27.784Z,3.10
2018-05-26T07:18:54.973Z,3.90
2018-05-26T07:21:22.188Z,3.43
2018-05-26T07:23:49.376Z,3.20
2018-05-26T07:26:16.562Z,3.10
2018-05-26T07:28:43.754Z,2.93
2018-05-26T07:31:10.949Z,6.20
2018-05-26T07:33:38.166Z,6.83
2018-05-26T07:36:05.538Z,5.80
2018-05-26T07:38:32.734Z,5.77
2018-05-26T07:40:59.923Z,6.53
2018-05-26T07:43:27.122Z,5.90
2018-05-26T07:45:54.314Z,6.60
2018-05-26T07:48:21.499Z,5.83
2018-05-26T07:50:48.692Z,6.77
2018-05-26T07:53:15.935Z,7.10
2018-05-26T07:55:43.283Z,6.83
2018-05-26T07:58:10.473Z,6.83
2018-05-26T08:00:37.677Z,7.80
2018-05-26T08:03:04.991Z,6.90
2018-05-26T08:05:32.189Z,7.20
2018-05-26T08:07:59.423Z,6.80
2018-05-26T08:10:26.613Z,7.47
2018-05-26T08:12:53.833Z,7.80
2018-05-26T08:15:21.056Z,7.43
2018-05-26T08:17:48.284Z,7.50
2018-05-26T08:20:15.473Z,8.10
2018-05-26T08:22:42.669Z,7.73
2018-05-26T08:25:09.866Z,8.30
2018-05-26T08:27:37.079Z,7.30
2018-05-26T08:30:04.028Z,7.63
2018-05-26T08:32:31.231Z,7.57
2018-05-26T08:34:58.452Z,8.30
2018-05-26T08:37:25.637Z,7.60
2018-05-26T08:39:52.841Z,7.30
2018-05-26T08:42:20.041Z,7.80
2018-05-26T08:44:47.221Z,7.43
2018-05-26T08:47:15.027Z,8.27
2018-05-26T08:49:42.269Z,8.10
2018-05-26T08:52:09.491Z,7.80
2018-05-26T08:54:36.668Z,7.63
2018-05-26T08:57:03.876Z,6.83
2018-05-26T08:59:31.071Z,7.13
2018-05-26T09:01:58.265Z,6.60
2018-05-26T09:04:25.513Z,7.67
2018-05-26T09:06:52.950Z,7.53
2018-05-26T09:09:20.135Z,7.30
2018-05-26T09:11:47.342Z,7.53
2018-05-26T09:14:14.570Z,7.53
2018-05-26T09:16:41.745Z,6.80
2018-05-26T09:19:08.945Z,6.57
2018-05-26T09:21:36.147Z,6.80
2018-05-26T09:24:03.358Z,7.57
2018-05-26T09:26:30.546Z,7.27
2018-05-26T09:28:57.722Z,5.73
2018-05-26T09:31:25.046Z,5.00
2018-05-26T09:33:52.335Z,6.57
2018-05-26T09:36:19.603Z,6.10
2018-05-26T09:38:46.786Z,5.90
2018-05-26T09:41:13.803Z,5.43
2018-05-26T09:43:41.021Z,6.10
2018-05-26T09:46:08.518Z,6.07
2018-05-26T09:48:35.749Z,5.80
2018-05-26T09:51:02.953Z,4.33
2018-05-26T09:53:30.183Z,5.37
2018-05-26T09:55:57.482Z,4.00
2018-05-26T09:58:24.827Z,6.00
2018-05-26T10:00:52.026Z,5.13
2018-05-26T10:03:19.258Z,5.40
2018-05-26T10:05:46.446Z,5.10
2018-05-26T10:08:13.682Z,5.50
2018-05-26T10:10:40.871Z,4.90
2018-05-26T10:13:10.629Z,6.53
2018-05-26T10:15:38.246Z,6.30
2018-05-26T10:18:05.522Z,6.20
2018-05-26T10:20:32.739Z,5.93
2018-05-26T10:22:59.966Z,5.57
2018-05-26T10:25:27.162Z,5.80
2018-05-26T10:27:54.407Z,5.70
2018-05-26T10:30:22.199Z,5.80
2018-05-26T10:32:49.395Z,5.47
2018-05-26T10:35:16.605Z,5.70
2018-05-26T10:37:43.802Z,7.13
2018-05-26T10:40:10.998Z,6.40
2018-05-26T10:42:40.507Z,6.33
2018-05-26T10:45:07.706Z,5.53
2018-05-26T10:47:34.935Z,6.20
2018-05-26T10:50:02.203Z,5.63
2018-05-26T10:52:29.453Z,7.80
2018-05-26T10:54:56.755Z,8.27
2018-05-26T10:57:23.975Z,7.30
2018-05-26T10:59:51.179Z,6.60
2018-05-26T11:02:18.369Z,7.33
2018-05-26T11:04:45.649Z,8.23
2018-05-26T11:07:12.977Z,8.10
2018-05-26T11:09:40.279Z,9.03
2018-05-26T11:12:07.485Z,8.17
2018-05-26T11:14:34.702Z,7.17
2018-05-26T11:17:02.207Z,7.13
2018-05-26T11:19:29.575Z,7.73
2018-05-26T11:21:56.859Z,7.87
2018-05-26T11:24:24.094Z,7.90
2018-05-26T11:26:51.582Z,8.13
2018-05-26T11:29:18.787Z,7.30
2018-05-26T11:31:45.995Z,8.07
2018-05-26T11:34:13.291Z,8.23
2018-05-26T11:36:40.471Z,7.93
2018-05-26T11:39:07.747Z,7.80
2018-05-26T11:41:35.508Z,7.33
2018-05-26T11:44:02.740Z,8.90
2018-05-26T11:46:29.933Z,7.20
2018-05-26T11:48:57.194Z,7.13
2018-05-26T11:51:24.421Z,6.70
2018-05-26T11:53:51.625Z,6.10
2018-05-26T11:56:18.927Z,6.17
2018-05-26T11:58:46.149Z,6.83
2018-05-26T12:01:13.437Z,7.50
2018-05-26T12:03:40.733Z,8.20
2018-05-26T12:06:07.924Z,7.20
2018-05-26T12:08:35.202Z,7.80
2018-05-26T12:11:02.660Z,7.63
2018-05-26T12:13:29.830Z,7.20
2018-05-26T12:15:57.096Z,6.50
2018-05-26T12:18:24.300Z,6.63
2018-05-26T12:20:51.521Z,7.23
2018-05-26T12:23:18.826Z,7.00
2018-05-26T12:25:46.030Z,6.27
2018-05-26T12:28:13.297Z,5.90
2018-05-26T12:30:40.587Z,5.70
2018-05-26T12:33:07.811Z,6.10
2018-05-26T12:35:35.028Z,7.03
2018-05-26T12:38:02.253Z,6.20
2018-05-26T12:40:29.469Z,6.27
2018-05-26T12:42:56.651Z,6.30
2018-05-26T12:45:23.879Z,5.33
2018-05-26T12:47:51.235Z,5.07
2018-05-26T12:50:18.629Z,4.40
2018-05-26T12:52:45.881Z,4.50
2018-05-26T12:55:13.099Z,4.20
2018-05-26T12:57:40.282Z,3.80
2018-05-26T13:00:07.496Z,5.73
2018-05-26T13:02:35.925Z,4.30
2018-05-26T13:05:03.130Z,3.47
2018-05-26T13:07:30.427Z,4.17
2018-05-26T13:09:57.682Z,2.90
2018-05-26T13:12:24.885Z,3.00
2018-05-26T13:14:52.106Z,3.63
2018-05-26T13:17:19.317Z,3.17
2018-05-26T13:19:46.494Z,2.87
2018-05-26T13:22:13.698Z,3.80
2018-05-26T13:24:40.900Z,3.30
2018-05-26T13:27:08.117Z,2.97
2018-05-26T13:29:35.333Z,4.57
2018-05-26T13:32:02.563Z,2.93
2018-05-26T13:34:29.742Z,3.17
2018-05-26T13:36:56.963Z,3.20
2018-05-26T13:39:24.153Z,3.33
2018-05-26T13:41:51.373Z,3.47
2018-05-26T13:44:18.570Z,3.37
2018-05-26T13:46:45.886Z,2.77
2018-05-26T13:49:13.072Z,2.60
2018-05-26T13:51:40.370Z,3.40
2018-05-26T13:54:07.678Z,3.70
2018-05-26T13:56:34.932Z,3.40
2018-05-26T13:59:02.359Z,3.50
2018-05-26T14:01:29.614Z,3.20
2018-05-26T14:03:56.818Z,3.30
2018-05-26T14:06:24.124Z,2.83
2018-05-26T14:08:51.307Z,5.40
2018-05-26T14:11:18.519Z,2.90
2018-05-26T14:13:45.718Z,2.30
2018-05-26T14:16:12.933Z,3.00
2018-05-26T14:18:40.118Z,2.30
2018-05-26T14:21:07.437Z,2.90
2018-05-26T14:23:34.801Z,3.60
2018-05-26T14:26:02.052Z,3.07
2018-05-26T14:28:29.269Z,2.70
2018-05-26T14:30:56.567Z,4.80
2018-05-26T14:33:23.808Z,5.10
2018-05-26T14:35:51.031Z,3.57
2018-05-26T14:38:18.232Z,3.70
2018-05-26T14:40:45.469Z,2.53
2018-05-26T14:43:12.694Z,3.37
2018-05-26T14:45:39.919Z,3.50
2018-05-26T14:48:07.135Z,3.17
2018-05-26T14:50:34.334Z,2.30
2018-05-26T14:53:01.545Z,2.20
2018-05-26T14:55:28.724Z,1.93
2018-05-26T14:57:55.926Z,1.70
2018-05-26T15:00:23.226Z,1.90
2018-05-26T15:02:50.436Z,1.87
2018-05-26T15:05:17.637Z,1.97
2018-05-26T15:07:44.829Z,2.90
2018-05-26T15:10:12.054Z,3.27
2018-05-26T15:12:39.254Z,2.60
2018-05-26T15:15:06.635Z,2.10
2018-05-26T15:17:33.873Z,2.53
2018-05-26T15:20:01.059Z,2.90
2018-05-26T15:22:28.516Z,2.60
2018-05-26T15:24:55.719Z,2.87
2018-05-26T15:27:22.926Z,2.57
2018-05-26T15:29:50.146Z,1.97
2018-05-26T15:32:17.405Z,1.70
2018-05-26T15:34:44.591Z,1.67
2018-05-26T15:37:11.805Z,1.60
2018-05-26T15:39:39.031Z,1.77
2018-05-26T15:42:06.225Z,1.90
2018-05-26T15:44:33.445Z,2.00
2018-05-26T15:47:00.723Z,1.83
2018-05-26T15:49:27.973Z,1.30
2018-05-26T15:51:55.173Z,2.00
2018-05-26T15:54:22.384Z,1.80
2018-05-26T15:56:49.600Z,2.60
2018-05-26T15:59:16.887Z,2.57
2018-05-26T16:01:44.083Z,2.30
2018-05-26T16:04:11.294Z,2.63
2018-05-26T16:06:38.549Z,2.40
2018-05-26T16:09:05.519Z,1.53
2018-05-26T16:11:32.709Z,2.30
2018-05-26T16:13:59.918Z,2.63
2018-05-26T16:16:27.104Z,2.60
2018-05-26T16:18:54.354Z,2.60
2018-05-26T16:21:21.557Z,2.00
2018-05-26T16:23:48.808Z,2.43
2018-05-26T16:26:16.020Z,2.20
2018-05-26T16:28:43.215Z,2.03
2018-05-26T16:31:10.420Z,2.03
2018-05-26T16:33:37.609Z,2.20
2018-05-26T16:36:04.798Z,2.20
2018-05-26T16:38:32.014Z,2.83
2018-05-26T16:40:59.286Z,2.33
2018-05-26T16:43:26.539Z,2.60
2018-05-26T16:45:53.796Z,2.83
2018-05-26T16:48:20.971Z,2.30
2018-05-26T16:50:48.171Z,1.90
2018-05-26T16:53:15.380Z,6.37
2018-05-26T16:55:42.607Z,4.27
2018-05-26T16:58:09.817Z,2.60
2018-05-26T17:00:37.026Z,3.97
2018-05-26T17:03:04.221Z,3.57
2018-05-26T17:05:31.419Z,2.63
2018-05-26T17:07:58.675Z,2.93
2018-05-26T17:10:25.929Z,2.20
2018-05-26T17:12:53.134Z,2.20
2018-05-26T17:15:20.377Z,3.07
2018-05-26T17:17:47.588Z,3.97
2018-05-26T17:20:14.796Z,3.73
2018-05-26T17:22:41.997Z,4.00
2018-05-26T17:25:09.248Z,2.70
2018-05-26T17:27:36.500Z,3.43
2018-05-26T17:30:03.698Z,2.43
2018-05-26T17:32:30.920Z,1.70
2018-05-26T17:34:58.095Z,2.40
2018-05-26T17:37:25.285Z,2.80
2018-05-26T17:39:52.486Z,2.87
2018-05-26T17:42:19.721Z,2.93
2018-05-26T17:44:46.918Z,3.97
2018-05-26T17:47:14.127Z,4.90
2018-05-26T17:49:41.381Z,3.77
2018-05-26T17:52:08.572Z,4.70
2018-05-26T17:54:35.584Z,2.70
2018-05-26T17:57:02.835Z,2.67
2018-05-26T17:59:30.095Z,2.30
2018-05-26T18:01:57.359Z,2.50
2018-05-26T18:04:24.560Z,2.00
2018-05-26T18:06:51.771Z,2.13
2018-05-26T18:09:18.987Z,2.60
2018-05-26T18:11:46.184Z,2.70
2018-05-26T18:14:13.372Z,4.37
2018-05-26T18:16:40.577Z,3.40
2018-05-26T18:19:07.813Z,3.37
2018-05-26T18:21:35.010Z,2.80
2018-05-26T18:24:02.325Z,4.40
2018-05-26T18:26:29.594Z,3.33
2018-05-26T18:28:56.809Z,4.60
2018-05-26T18:31:24.001Z,5.60
2018-05-26T18:33:51.241Z,5.97
2018-05-26T18:36:18.492Z,7.13
2018-05-26T18:38:45.719Z,5.23
2018-05-26T18:41:12.914Z,5.03
2018-05-26T18:43:40.105Z,5.47
2018-05-26T18:46:07.406Z,5.40
2018-05-26T18:48:34.598Z,4.60
2018-05-26T18:51:01.916Z,4.13
2018-05-26T18:53:29.138Z,3.90
2018-05-26T18:55:56.421Z,4.67
2018-05-26T18:58:23.643Z,4.50
2018-05-26T19:00:50.834Z,5.10
2018-05-26T19:03:18.039Z,4.57
2018-05-26T19:05:45.234Z,4.63
2018-05-26T19:08:12.459Z,4.43
2018-05-26T19:10:39.679Z,6.33
2018-05-26T19:13:07.004Z,11.70
2018-05-26T19:15:34.234Z,7.30
2018-05-26T19:18:01.435Z,8.30
2018-05-26T19:20:28.631Z,10.80
2018-05-26T19:22:55.874Z,8.70
2018-05-26T19:25:23.077Z,9.73
2018-05-26T19:27:50.287Z,10.00
2018-05-26T19:30:17.489Z,9.73
2018-05-26T19:32:44.707Z,15.37
2018-05-26T19:35:11.903Z,79.90
2018-05-26T19:37:39.137Z,109.60
2018-05-26T19:40:06.371Z,77.23
2018-05-26T19:42:33.564Z,38.70
2018-05-26T19:45:00.798Z,17.03
2018-05-26T19:47:28.041Z,9.20
2018-05-26T19:49:55.316Z,16.50
2018-05-26T19:52:22.637Z,10.90
2018-05-26T19:54:49.849Z,9.07
2018-05-26T19:57:17.079Z,9.87
2018-05-26T19:59:44.270Z,6.70
2018-05-26T20:02:13.316Z,6.40
2018-05-26T20:04:40.491Z,6.43
2018-05-26T20:07:07.727Z,5.93
2018-05-26T20:09:34.918Z,5.33
2018-05-26T20:12:02.225Z,5.03
2018-05-26T20:14:29.452Z,6.10
2018-05-26T20:16:56.662Z,5.37
2018-05-26T20:19:23.851Z,6.23
2018-05-26T20:21:51.053Z,6.30
2018-05-26T20:24:18.288Z,6.90
2018-05-26T20:26:45.544Z,6.53
2018-05-26T20:29:12.798Z,5.93
2018-05-26T20:31:40.012Z,5.50
2018-05-26T20:34:07.205Z,5.40
2018-05-26T20:36:34.456Z,6.30
2018-05-26T20:39:01.677Z,5.97
2018-05-26T20:41:35.902Z,5.50
2018-05-26T20:44:03.169Z,6.37
2018-05-26T20:46:30.378Z,7.13
2018-05-26T20:48:57.694Z,6.20
2018-05-26T20:51:24.916Z,6.00
2018-05-26T20:53:52.126Z,6.23
2018-05-26T20:56:19.413Z,7.10
2018-05-26T20:58:46.608Z,6.80
2018-05-26T21:01:13.824Z,8.40
2018-05-26T21:03:41.158Z,11.90
2018-05-26T21:06:08.358Z,13.40
2018-05-26T21:08:35.577Z,12.30
2018-05-26T21:11:02.773Z,11.00
2018-05-26T21:13:30.171Z,9.73
2018-05-26T21:15:57.488Z,9.20
2018-05-26T21:18:24.689Z,10.33
2018-05-26T21:20:51.891Z,7.10
2018-05-26T21:23:19.088Z,6.67
2018-05-26T21:25:46.368Z,6.03
2018-05-26T21:28:13.576Z,6.30
2018-05-26T21:30:40.802Z,7.57
2018-05-26T21:33:07.994Z,6.70
2018-05-26T21:35:35.685Z,7.27
2018-05-26T21:38:02.918Z,6.67
2018-05-26T21:40:30.234Z,6.87
2018-05-26T21:42:57.422Z,6.80
2018-05-26T21:45:24.646Z,8.10
2018-05-26T21:47:52.043Z,6.30
2018-05-26T21:50:19.233Z,6.80
2018-05-26T21:52:46.438Z,9.83
2018-05-26T21:55:13.621Z,8.53
2018-05-26T21:57:40.855Z,7.70
2018-05-26T22:00:08.084Z,7.47
2018-05-26T22:02:35.324Z,7.63
2018-05-26T22:05:02.531Z,7.67
2018-05-26T22:07:29.716Z,7.90
2018-05-26T22:09:56.917Z,7.70
2018-05-26T22:12:24.107Z,7.70
2018-05-26T22:14:51.327Z,8.40
2018-05-26T22:17:18.519Z,8.03
2018-05-26T22:19:45.721Z,9.40
2018-05-26T22:22:12.946Z,8.37
2018-05-26T22:24:40.137Z,7.33
2018-05-26T22:27:07.346Z,7.93
2018-05-26T22:29:34.550Z,7.93
2018-05-26T22:32:01.737Z,8.20
2018-05-26T22:34:28.929Z,8.13
2018-05-26T22:36:56.129Z,8.13
2018-05-26T22:39:23.351Z,7.90
2018-05-26T22:41:50.563Z,8.90
2018-05-26T22:44:17.773Z,7.83
2018-05-26T22:46:44.969Z,7.90
2018-05-26T22:49:12.165Z,8.50
2018-05-26T22:51:39.376Z,7.80
2018-05-26T22:54:06.561Z,7.57
2018-05-26T22:56:33.782Z,8.20
2018-05-26T22:59:00.972Z,9.10
2018-05-26T23:01:28.170Z,9.00
2018-05-26T23:03:55.384Z,10.13
2018-05-26T23:06:22.756Z,8.53
2018-05-26T23:08:49.979Z,9.30
2018-05-26T23:11:17.170Z,8.37
2018-05-26T23:13:44.430Z,8.03
2018-05-26T23:16:11.639Z,7.70
2018-05-26T23:18:38.825Z,7.67
2018-05-26T23:21:06.030Z,8.20
2018-05-26T23:23:33.215Z,7.27
2018-05-26T23:26:00.423Z,9.23
2018-05-26T23:28:27.616Z,7.43
2018-05-26T23:30:54.814Z,8.27
2018-05-26T23:33:22.021Z,7.53
2018-05-26T23:35:49.217Z,7.40
2018-05-26T23:38:16.421Z,7.90
2018-05-26T23:40:43.618Z,7.63
2018-05-26T23:43:10.805Z,7.10
2018-05-26T23:45:38.013Z,6.93
2018-05-26T23:48:05.230Z,7.67
2018-05-26T23:50:32.434Z,7.20
2018-05-26T23:52:59.634Z,7.70
2018-05-26T23:55:26.839Z,9.17
2018-05-26T23:57:54.049Z,8.30
